Terminal Aerodrome Forecast
Issued by NWS Albuquerque, NM

Home | Current Version | Previous Version | Text Only | Print | Product List | Glossary On
Versions: 1 2 3 4 5 6 7 8 9 10 11 12 13 14
000
FTUS45 KABQ 310521
TAFABQ
TAF
KABQ 310521Z 3106/0106 10008KT P6SM BKN150
     FM312100 15008KT P6SM VCSH BKN110
     FM010100 10015G25KT P6SM VCSH FEW050 BKN100=

USA.gov is the U.S. government's official web portal to all federal, state and local government web resources and services.